HorshamWeather.Com Historical Data
 
Daily Summary for July 31, 2015 Units:  English    Metric   Both
« Previous Day
Next Day »
Daily Weekly Monthly Yearly Custom
  Current: High: Low: Average:
Temperature: 69.9 °F 89.3 °F 63.9 °F 77.5 °F
Dew Point: 60.9 °F 70.8 °F 57.5 °F 63.2 °F
Humidity: 73% 96% 36% 66%
Wind Speed: 0.0mph 5.0mph 0.0mph 1.9mph
Wind Gust: 0.0mph 10.0mph - -
WindCalm - - SW
Pressure: 29.86 in 29.92 in 29.82 in -
Precipitation: 0.00 in      
Historical Graphs
 
 
Tabular Data for July 31, 2015
Time Temperature Dew Point Pressure Wind Wind Speed Wind Gust Humidity Rainfall Rate (Hourly)
00:01 72.3 °F 70.8 °F 29.87 in Calm     95% 0.00 in
00:11 72.3 °F 70.8 °F 29.87 in Calm     95% 0.00 in
00:16 72.2 °F 70.7 °F 29.87 in Calm     95% 0.00 in
00:21 72.2 °F 70.7 °F 29.87 in Calm     95% 0.00 in
00:26 72.1 °F 70.6 °F 29.87 in Calm     95% 0.00 in
00:31 72.1 °F 70.6 °F 29.87 in Calm     95% 0.00 in
00:41 71.9 °F 70.4 °F 29.87 in Calm     95% 0.00 in
00:46 71.8 °F 70.3 °F 29.86 in Calm   1.0 mph 95% 0.00 in
00:51 71.7 °F 70.2 °F 29.87 in Calm     95% 0.00 in
00:56 71.6 °F 70.1 °F 29.87 in Calm   1.0 mph 95% 0.00 in
01:01 71.5 °F 70.0 °F 29.87 in Calm     95% 0.00 in
01:06 71.4 °F 69.9 °F 29.87 in SW 1.0 mph 1.0 mph 95% 0.00 in
01:11 71.3 °F 69.8 °F 29.87 in Calm     95% 0.00 in
01:16 71.3 °F 70.1 °F 29.87 in Calm     96% 0.00 in
01:21 71.2 °F 69.7 °F 29.87 in Calm     95% 0.00 in
01:26 71.1 °F 69.6 °F 29.87 in Calm     95% 0.00 in
01:31 70.9 °F 69.4 °F 29.87 in Calm     95% 0.00 in
01:36 70.8 °F 69.3 °F 29.87 in Calm     95% 0.00 in
01:41 70.7 °F 69.2 °F 29.87 in Calm     95% 0.00 in
01:46 70.7 °F 69.2 °F 29.87 in Calm     95% 0.00 in
01:51 70.6 °F 69.1 °F 29.87 in Calm     95% 0.00 in
01:56 70.5 °F 69.3 °F 29.87 in Calm   1.0 mph 96% 0.00 in
02:01 70.4 °F 69.2 °F 29.87 in SW 1.0 mph 1.0 mph 96% 0.00 in
02:06 70.3 °F 68.8 °F 29.87 in Calm     95% 0.00 in
02:11 70.2 °F 68.7 °F 29.87 in Calm     95% 0.00 in
02:16 70.1 °F 68.6 °F 29.87 in Calm     95% 0.00 in
02:21 69.9 °F 68.4 °F 29.87 in Calm     95% 0.00 in
02:26 69.8 °F 68.3 °F 29.87 in Calm     95% 0.00 in
02:31 69.5 °F 68.0 °F 29.87 in Calm     95% 0.00 in
02:36 69.4 °F 67.9 °F 29.87 in Calm     95% 0.00 in
02:41 69.3 °F 67.8 °F 29.87 in Calm     95% 0.00 in
02:46 69.1 °F 67.6 °F 29.87 in Calm     95% 0.00 in
02:51 69.0 °F 67.5 °F 29.87 in Calm     95% 0.00 in
02:56 68.8 °F 67.3 °F 29.87 in Calm     95% 0.00 in
03:01 68.6 °F 67.1 °F 29.87 in Calm     95% 0.00 in
03:06 68.5 °F 67.0 °F 29.88 in Calm     95% 0.00 in
03:11 68.3 °F 66.8 °F 29.88 in Calm     95% 0.00 in
03:16 68.1 °F 66.6 °F 29.87 in Calm     95% 0.00 in
03:21 67.9 °F 66.4 °F 29.87 in Calm     95% 0.00 in
03:26 67.7 °F 66.2 °F 29.88 in Calm     95% 0.00 in
03:31 67.6 °F 66.1 °F 29.88 in Calm     95% 0.00 in
03:36 67.4 °F 65.9 °F 29.88 in Calm     95% 0.00 in
03:41 67.2 °F 65.4 °F 29.87 in Calm     94% 0.00 in
03:46 67.1 °F 65.6 °F 29.88 in Calm     95% 0.00 in
03:51 67.0 °F 65.5 °F 29.88 in Calm     95% 0.00 in
03:56 66.9 °F 65.4 °F 29.88 in Calm     95% 0.00 in
04:01 66.8 °F 65.3 °F 29.88 in Calm     95% 0.00 in
04:06 66.7 °F 65.2 °F 29.88 in Calm     95% 0.00 in
04:11 66.6 °F 65.1 °F 29.88 in Calm     95% 0.00 in
04:16 66.5 °F 65.0 °F 29.88 in Calm     95% 0.00 in
04:21 66.3 °F 64.8 °F 29.88 in Calm     95% 0.00 in
04:26 66.2 °F 64.7 °F 29.88 in Calm     95% 0.00 in
04:31 66.1 °F 64.6 °F 29.88 in Calm     95% 0.00 in
04:36 65.9 °F 64.4 °F 29.88 in Calm     95% 0.00 in
04:41 65.9 °F 64.4 °F 29.88 in Calm     95% 0.00 in
04:46 65.8 °F 64.3 °F 29.88 in Calm     95% 0.00 in
04:51 65.7 °F 64.2 °F 29.89 in Calm     95% 0.00 in
04:56 65.5 °F 64.0 °F 29.88 in Calm     95% 0.00 in
05:01 65.4 °F 63.9 °F 29.88 in Calm     95% 0.00 in
05:06 65.3 °F 63.8 °F 29.88 in Calm     95% 0.00 in
05:11 65.1 °F 63.6 °F 29.88 in Calm     95% 0.00 in
05:16 65.1 °F 63.6 °F 29.88 in Calm     95% 0.00 in
05:21 65.1 °F 63.6 °F 29.88 in Calm     95% 0.00 in
05:26 65.0 °F 63.5 °F 29.88 in Calm     95% 0.00 in
05:31 64.9 °F 63.4 °F 29.88 in Calm     95% 0.00 in
05:36 64.8 °F 63.3 °F 29.88 in Calm     95% 0.00 in
05:41 64.7 °F 63.2 °F 29.88 in Calm     95% 0.00 in
05:46 64.5 °F 63.0 °F 29.88 in Calm     95% 0.00 in
05:51 64.4 °F 62.9 °F 29.88 in Calm     95% 0.00 in
05:56 64.3 °F 62.8 °F 29.89 in Calm     95% 0.00 in
06:01 64.2 °F 62.7 °F 29.89 in Calm     95% 0.00 in
06:06 64.1 °F 62.6 °F 29.89 in Calm     95% 0.00 in
06:11 64.1 °F 62.6 °F 29.89 in Calm     95% 0.00 in
06:16 64.0 °F 62.5 °F 29.89 in Calm     95% 0.00 in
06:21 63.9 °F 62.4 °F 29.89 in Calm   1.0 mph 95% 0.00 in
06:26 63.9 °F 62.7 °F 29.89 in Calm   2.0 mph 96% 0.00 in
06:31 63.9 °F 62.7 °F 29.89 in Calm   1.0 mph 96% 0.00 in
06:36 63.9 °F 62.7 °F 29.89 in Calm     96% 0.00 in
06:41 64.0 °F 62.8 °F 29.89 in Calm     96% 0.00 in
06:46 64.0 °F 62.8 °F 29.89 in Calm   1.0 mph 96% 0.00 in
06:51 64.1 °F 62.9 °F 29.90 in Calm     96% 0.00 in
06:56 64.3 °F 63.1 °F 29.89 in Calm     96% 0.00 in
07:01 64.4 °F 63.2 °F 29.89 in Calm     96% 0.00 in
07:06 64.5 °F 63.3 °F 29.90 in Calm     96% 0.00 in
07:11 64.6 °F 63.4 °F 29.90 in Calm     96% 0.00 in
07:16 64.7 °F 63.5 °F 29.90 in Calm     96% 0.00 in
07:21 64.9 °F 63.7 °F 29.90 in Calm   1.0 mph 96% 0.00 in
07:26 65.0 °F 63.8 °F 29.90 in Calm     96% 0.00 in
07:31 65.2 °F 64.0 °F 29.90 in Calm     96% 0.00 in
07:36 65.4 °F 64.2 °F 29.90 in Calm   2.0 mph 96% 0.00 in
07:41 65.6 °F 64.1 °F 29.90 in North 1.0 mph 3.0 mph 95% 0.00 in
07:46 65.8 °F 64.3 °F 29.90 in Calm   1.0 mph 95% 0.00 in
07:51 66.1 °F 64.6 °F 29.91 in Calm   1.0 mph 95% 0.00 in
07:56 66.4 °F 64.3 °F 29.91 in Calm   2.0 mph 93% 0.00 in
08:01 66.9 °F 64.5 °F 29.91 in West 1.0 mph 1.0 mph 92% 0.00 in
08:06 67.5 °F 64.8 °F 29.91 in West 1.0 mph 1.0 mph 91% 0.00 in
08:11 68.4 °F 65.7 °F 29.91 in Calm     91% 0.00 in
08:16 69.4 °F 66.0 °F 29.92 in Calm     89% 0.00 in
08:21 70.6 °F 65.9 °F 29.92 in Calm   2.0 mph 85% 0.00 in
08:26 72.1 °F 66.3 °F 29.92 in Calm   1.0 mph 82% 0.00 in
08:31 73.3 °F 66.8 °F 29.91 in NNE 1.0 mph 2.0 mph 80% 0.00 in
08:36 74.4 °F 67.1 °F 29.91 in Calm   2.0 mph 78% 0.00 in
08:41 75.7 °F 67.2 °F 29.91 in NW 1.0 mph 1.0 mph 75% 0.00 in
08:46 76.7 °F 66.6 °F 29.91 in Calm   2.0 mph 71% 0.00 in
08:51 77.6 °F 66.2 °F 29.91 in NNW 3.0 mph 3.0 mph 68% 0.00 in
08:56 78.5 °F 67.5 °F 29.91 in NW 1.0 mph 3.0 mph 69% 0.00 in
09:01 79.0 °F 65.8 °F 29.91 in NW 1.0 mph 3.0 mph 64% 0.00 in
09:06 79.5 °F 67.2 °F 29.91 in WSW 1.0 mph 3.0 mph 66% 0.00 in
09:11 80.2 °F 64.6 °F 29.91 in NNW 4.0 mph 4.0 mph 59% 0.00 in
09:16 80.5 °F 65.3 °F 29.91 in North 2.0 mph 3.0 mph 60% 0.00 in
09:21 80.7 °F 66.9 °F 29.91 in Calm   2.0 mph 63% 0.00 in
09:31 81.5 °F 65.3 °F 29.91 in WSW 1.0 mph 5.0 mph 58% 0.00 in
09:36 82.2 °F 65.0 °F 29.91 in North 2.0 mph 4.0 mph 56% 0.00 in
09:41 82.8 °F 66.0 °F 29.91 in Calm   2.0 mph 57% 0.00 in
09:46 83.4 °F 66.1 °F 29.91 in Calm   2.0 mph 56% 0.00 in
09:51 83.9 °F 64.4 °F 29.91 in SE 1.0 mph 2.0 mph 52% 0.00 in
09:56 84.3 °F 65.3 °F 29.91 in ENE 1.0 mph 5.0 mph 53% 0.00 in
10:01 84.3 °F 66.9 °F 29.91 in WNW 1.0 mph 3.0 mph 56% 0.00 in
10:06 84.4 °F 66.5 °F 29.91 in WNW 1.0 mph 2.0 mph 55% 0.00 in
10:11 84.7 °F 66.8 °F 29.91 in WSW 1.0 mph 5.0 mph 55% 0.00 in
10:17 84.5 °F 66.6 °F 29.91 in Calm   3.0 mph 55% 0.00 in
10:22 84.8 °F 66.3 °F 29.91 in SW 1.0 mph 4.0 mph 54% 0.00 in
10:27 85.3 °F 66.8 °F 29.91 in West 2.0 mph 3.0 mph 54% 0.00 in
10:32 85.5 °F 65.3 °F 29.91 in West 2.0 mph 3.0 mph 51% 0.00 in
10:37 85.5 °F 67.0 °F 29.91 in East 1.0 mph 3.0 mph 54% 0.00 in
10:42 85.7 °F 65.5 °F 29.91 in WSW 2.0 mph 3.0 mph 51% 0.00 in
10:47 85.9 °F 65.1 °F 29.91 in Calm   4.0 mph 50% 0.00 in
10:52 86.3 °F 65.5 °F 29.91 in Calm   3.0 mph 50% 0.00 in
10:57 86.4 °F 66.2 °F 29.91 in NNE 5.0 mph 5.0 mph 51% 0.00 in
11:02 86.5 °F 65.7 °F 29.91 in ENE 2.0 mph 4.0 mph 50% 0.00 in
11:07 86.8 °F 65.9 °F 29.91 in NW 3.0 mph 4.0 mph 50% 0.00 in
11:12 86.9 °F 64.3 °F 29.91 in North 4.0 mph 6.0 mph 47% 0.00 in
11:17 86.8 °F 64.8 °F 29.91 in Calm   6.0 mph 48% 0.00 in
11:22 87.1 °F 65.6 °F 29.91 in WNW 2.0 mph 4.0 mph 49% 0.00 in
11:27 87.2 °F 63.3 °F 29.91 in North 1.0 mph 8.0 mph 45% 0.00 in
11:32 87.0 °F 63.7 °F 29.91 in NW 2.0 mph 3.0 mph 46% 0.00 in
11:37 86.9 °F 64.3 °F 29.91 in NW 1.0 mph 4.0 mph 47% 0.00 in
11:42 87.0 °F 63.1 °F 29.91 in NW 3.0 mph 5.0 mph 45% 0.00 in
11:47 87.4 °F 66.5 °F 29.91 in NNE 3.0 mph 5.0 mph 50% 0.00 in
11:52 87.5 °F 66.0 °F 29.90 in North 1.0 mph 6.0 mph 49% 0.00 in
11:57 88.0 °F 63.4 °F 29.90 in NNE 4.0 mph 5.0 mph 44% 0.00 in
12:02 88.4 °F 65.0 °F 29.90 in West 3.0 mph 4.0 mph 46% 0.00 in
12:07 89.0 °F 66.8 °F 29.90 in WNW 1.0 mph 4.0 mph 48% 0.00 in
12:12 89.3 °F 62.5 °F 29.90 in NW 1.0 mph 4.0 mph 41% 0.00 in
12:17 89.1 °F 61.7 °F 29.90 in SSE 3.0 mph 3.0 mph 40% 0.00 in
12:22 89.0 °F 63.0 °F 29.89 in North 3.0 mph 3.0 mph 42% 0.00 in
12:27 88.6 °F 61.9 °F 29.89 in West 2.0 mph 3.0 mph 41% 0.00 in
12:32 88.1 °F 60.8 °F 29.89 in NNE 2.0 mph 5.0 mph 40% 0.00 in
12:37 88.2 °F 60.8 °F 29.89 in North 1.0 mph 5.0 mph 40% 0.00 in
12:42 88.6 °F 59.8 °F 29.89 in NW 1.0 mph 8.0 mph 38% 0.00 in
12:47 88.0 °F 59.2 °F 29.89 in NW 3.0 mph 5.0 mph 38% 0.00 in
12:52 87.5 °F 58.0 °F 29.89 in NNW 3.0 mph 5.0 mph 37% 0.00 in
12:57 87.4 °F 60.1 °F 29.88 in Calm   4.0 mph 40% 0.00 in
13:02 87.0 °F 60.5 °F 29.88 in NW 1.0 mph 4.0 mph 41% 0.00 in
13:07 86.8 °F 64.2 °F 29.88 in Calm   3.0 mph 47% 0.00 in
13:12 87.2 °F 59.2 °F 29.88 in North 3.0 mph 4.0 mph 39% 0.00 in
13:17 87.7 °F 57.5 °F 29.88 in NE 4.0 mph 10.0 mph 36% 0.00 in
13:22 87.7 °F 57.5 °F 29.88 in NNW 2.0 mph 6.0 mph 36% 0.00 in
13:27 87.6 °F 58.9 °F 29.88 in NW 2.0 mph 9.0 mph 38% 0.00 in
13:32 87.8 °F 61.2 °F 29.88 in NNW 3.0 mph 5.0 mph 41% 0.00 in
13:37 88.0 °F 61.4 °F 29.88 in NW 2.0 mph 10.0 mph 41% 0.00 in
13:42 88.2 °F 61.5 °F 29.88 in South 1.0 mph 5.0 mph 41% 0.00 in
13:47 88.1 °F 62.1 °F 29.88 in NW 1.0 mph 8.0 mph 42% 0.00 in
13:52 87.8 °F 62.5 °F 29.88 in West 1.0 mph 3.0 mph 43% 0.00 in
13:57 87.3 °F 62.1 °F 29.88 in NNE 3.0 mph 5.0 mph 43% 0.00 in
14:02 87.1 °F 62.6 °F 29.88 in Calm   6.0 mph 44% 0.00 in
14:07 86.8 °F 61.6 °F 29.88 in NW 2.0 mph 6.0 mph 43% 0.00 in
14:12 86.6 °F 61.5 °F 29.88 in NNW 3.0 mph 7.0 mph 43% 0.00 in
14:17 86.9 °F 61.7 °F 29.87 in NE 1.0 mph 8.0 mph 43% 0.00 in
14:22 87.2 °F 61.3 °F 29.88 in WNW 4.0 mph 4.0 mph 42% 0.00 in
14:27 87.3 °F 62.1 °F 29.87 in NNE 2.0 mph 4.0 mph 43% 0.00 in
14:32 87.5 °F 60.9 °F 29.87 in West 2.0 mph 4.0 mph 41% 0.00 in
14:37 87.7 °F 59.0 °F 29.87 in Calm   3.0 mph 38% 0.00 in
14:42 87.9 °F 59.9 °F 29.86 in NNE 3.0 mph 3.0 mph 39% 0.00 in
14:47 88.1 °F 60.0 °F 29.86 in North 2.0 mph 4.0 mph 39% 0.00 in
14:52 88.3 °F 60.2 °F 29.86 in WNW 1.0 mph 4.0 mph 39% 0.00 in
14:57 88.5 °F 59.7 °F 29.86 in NNE 1.0 mph 5.0 mph 38% 0.00 in
15:02 88.3 °F 59.5 °F 29.86 in WNW 1.0 mph 4.0 mph 38% 0.00 in
15:07 88.2 °F 61.5 °F 29.86 in NW 2.0 mph 5.0 mph 41% 0.00 in
15:12 88.2 °F 63.6 °F 29.86 in SSW 4.0 mph 6.0 mph 44% 0.00 in
15:17 88.1 °F 62.1 °F 29.85 in SW 2.0 mph 9.0 mph 42% 0.00 in
15:22 88.4 °F 60.3 °F 29.85 in WSW 5.0 mph 5.0 mph 39% 0.00 in
15:27 88.5 °F 61.1 °F 29.85 in NW 1.0 mph 5.0 mph 40% 0.00 in
15:32 88.6 °F 62.6 °F 29.85 in NW 3.0 mph 4.0 mph 42% 0.00 in
15:37 88.9 °F 62.9 °F 29.85 in NW 4.0 mph 5.0 mph 42% 0.00 in
15:42 88.9 °F 61.5 °F 29.85 in West 3.0 mph 6.0 mph 40% 0.00 in
15:47 88.6 °F 61.2 °F 29.84 in Calm   5.0 mph 40% 0.00 in
15:52 88.8 °F 62.8 °F 29.84 in WNW 1.0 mph 4.0 mph 42% 0.00 in
15:57 89.0 °F 60.8 °F 29.84 in NNE 2.0 mph 6.0 mph 39% 0.00 in
16:02 88.9 °F 61.5 °F 29.84 in WNW 1.0 mph 4.0 mph 40% 0.00 in
16:07 88.7 °F 62.0 °F 29.84 in West 1.0 mph 8.0 mph 41% 0.00 in
16:12 88.7 °F 60.6 °F 29.84 in Calm   4.0 mph 39% 0.00 in
16:17 88.7 °F 62.0 °F 29.84 in SSW 1.0 mph 5.0 mph 41% 0.00 in
16:22 88.6 °F 60.5 °F 29.84 in North 1.0 mph 8.0 mph 39% 0.00 in
16:27 88.5 °F 60.4 °F 29.84 in NW 2.0 mph 5.0 mph 39% 0.00 in
16:32 88.3 °F 60.2 °F 29.84 in NW 1.0 mph 7.0 mph 39% 0.00 in
16:37 88.2 °F 59.4 °F 29.84 in North 2.0 mph 5.0 mph 38% 0.00 in
16:42 88.3 °F 59.5 °F 29.84 in NNW 1.0 mph 6.0 mph 38% 0.00 in
16:47 88.4 °F 59.6 °F 29.83 in Calm   3.0 mph 38% 0.00 in
16:52 88.6 °F 61.2 °F 29.84 in NW 1.0 mph 6.0 mph 40% 0.00 in
16:57 88.5 °F 59.7 °F 29.83 in NE 1.0 mph 3.0 mph 38% 0.00 in
17:02 88.3 °F 59.5 °F 29.83 in WNW 1.0 mph 5.0 mph 38% 0.00 in
17:07 88.4 °F 59.6 °F 29.83 in Calm   5.0 mph 38% 0.00 in
17:12 88.4 °F 61.0 °F 29.83 in NNE 2.0 mph 3.0 mph 40% 0.00 in
17:17 88.3 °F 60.2 °F 29.83 in NE 4.0 mph 4.0 mph 39% 0.00 in
17:22 88.1 °F 59.3 °F 29.83 in West 2.0 mph 4.0 mph 38% 0.00 in
17:27 87.7 °F 59.7 °F 29.83 in WNW 1.0 mph 4.0 mph 39% 0.00 in
17:32 87.6 °F 59.6 °F 29.83 in Calm   9.0 mph 39% 0.00 in
17:37 87.4 °F 58.7 °F 29.83 in Calm   7.0 mph 38% 0.00 in
17:42 87.0 °F 57.6 °F 29.83 in West 1.0 mph 6.0 mph 37% 0.00 in
17:47 86.6 °F 58.7 °F 29.83 in North 3.0 mph 3.0 mph 39% 0.00 in
17:52 86.4 °F 58.5 °F 29.83 in NW 1.0 mph 5.0 mph 39% 0.00 in
17:57 86.2 °F 58.4 °F 29.83 in WSW 3.0 mph 3.0 mph 39% 0.00 in
18:02 86.0 °F 58.9 °F 29.83 in NW 2.0 mph 3.0 mph 40% 0.00 in
18:07 85.8 °F 58.7 °F 29.83 in ESE 1.0 mph 3.0 mph 40% 0.00 in
18:12 85.6 °F 57.8 °F 29.83 in WNW 2.0 mph 5.0 mph 39% 0.00 in
18:17 85.4 °F 58.4 °F 29.83 in WNW 1.0 mph 5.0 mph 40% 0.00 in
18:22 85.1 °F 58.8 °F 29.83 in NE 1.0 mph 4.0 mph 41% 0.00 in
18:27 84.9 °F 58.6 °F 29.82 in WNW 1.0 mph 3.0 mph 41% 0.00 in
18:32 84.7 °F 59.8 °F 29.82 in SE 1.0 mph 2.0 mph 43% 0.00 in
18:37 84.5 °F 60.2 °F 29.82 in Calm   4.0 mph 44% 0.00 in
18:42 84.3 °F 59.4 °F 29.82 in SW 3.0 mph 9.0 mph 43% 0.00 in
18:47 84.1 °F 59.2 °F 29.82 in West 1.0 mph 3.0 mph 43% 0.00 in
18:52 83.9 °F 59.0 °F 29.82 in Calm   3.0 mph 43% 0.00 in
18:57 83.7 °F 60.1 °F 29.82 in NE 1.0 mph 2.0 mph 45% 0.00 in
19:02 83.4 °F 59.2 °F 29.82 in Calm   4.0 mph 44% 0.00 in
19:07 83.1 °F 59.0 °F 29.82 in West 2.0 mph 2.0 mph 44% 0.00 in
19:12 82.9 °F 58.8 °F 29.82 in NW 2.0 mph 6.0 mph 44% 0.00 in
19:17 82.8 °F 59.9 °F 29.82 in WNW 1.0 mph 2.0 mph 46% 0.00 in
19:22 82.6 °F 59.1 °F 29.82 in South 1.0 mph 1.0 mph 45% 0.00 in
19:27 82.3 °F 59.5 °F 29.82 in Calm   2.0 mph 46% 0.00 in
19:32 82.0 °F 59.2 °F 29.82 in Calm   3.0 mph 46% 0.00 in
19:37 81.7 °F 59.5 °F 29.82 in Calm   3.0 mph 47% 0.00 in
19:42 81.4 °F 60.4 °F 29.82 in Calm   2.0 mph 49% 0.00 in
19:47 81.2 °F 59.7 °F 29.82 in WNW 1.0 mph 1.0 mph 48% 0.00 in
19:52 80.8 °F 58.7 °F 29.82 in Calm   1.0 mph 47% 0.00 in
19:57 80.6 °F 59.1 °F 29.82 in Calm   1.0 mph 48% 0.00 in
20:02 80.3 °F 59.4 °F 29.82 in Calm   1.0 mph 49% 0.00 in
20:07 80.0 °F 59.1 °F 29.83 in Calm     49% 0.00 in
20:12 79.7 °F 60.5 °F 29.83 in Calm     52% 0.00 in
20:17 79.4 °F 59.7 °F 29.83 in Calm     51% 0.00 in
20:22 79.0 °F 60.4 °F 29.83 in Calm     53% 0.00 in
20:27 78.7 °F 60.2 °F 29.83 in Calm     53% 0.00 in
20:32 78.2 °F 60.7 °F 29.83 in Calm     55% 0.00 in
20:37 77.7 °F 60.3 °F 29.83 in Calm     55% 0.00 in
20:42 77.3 °F 60.4 °F 29.83 in Calm     56% 0.00 in
20:47 76.9 °F 60.5 °F 29.83 in Calm     57% 0.00 in
20:52 76.5 °F 60.6 °F 29.83 in Calm     58% 0.00 in
20:57 76.1 °F 60.8 °F 29.83 in Calm     59% 0.00 in
21:02 75.8 °F 60.5 °F 29.84 in Calm     59% 0.00 in
21:07 75.4 °F 60.6 °F 29.84 in Calm     60% 0.00 in
21:12 75.1 °F 61.2 °F 29.84 in Calm     62% 0.00 in
21:17 74.8 °F 60.9 °F 29.84 in Calm     62% 0.00 in
21:22 74.4 °F 60.5 °F 29.84 in Calm     62% 0.00 in
21:27 74.1 °F 60.3 °F 29.84 in Calm     62% 0.00 in
21:32 73.9 °F 61.4 °F 29.85 in Calm     65% 0.00 in
21:37 73.7 °F 61.2 °F 29.85 in Calm   1.0 mph 65% 0.00 in
21:42 73.5 °F 61.0 °F 29.85 in Calm     65% 0.00 in
21:47 73.3 °F 60.8 °F 29.85 in Calm     65% 0.00 in
21:52 73.1 °F 61.1 °F 29.85 in Calm     66% 0.00 in
21:57 72.9 °F 60.9 °F 29.85 in Calm     66% 0.00 in
22:02 72.6 °F 60.6 °F 29.85 in Calm     66% 0.00 in
22:07 72.5 °F 60.9 °F 29.85 in Calm     67% 0.00 in
22:12 72.3 °F 61.2 °F 29.85 in Calm     68% 0.00 in
22:17 72.1 °F 61.0 °F 29.86 in Calm     68% 0.00 in
22:22 71.9 °F 60.8 °F 29.86 in Calm     68% 0.00 in
22:27 71.8 °F 61.1 °F 29.86 in Calm     69% 0.00 in
22:32 71.6 °F 60.9 °F 29.86 in Calm     69% 0.00 in
22:37 71.4 °F 61.1 °F 29.86 in Calm     70% 0.00 in
22:42 71.3 °F 61.0 °F 29.86 in Calm     70% 0.00 in
22:48 71.1 °F 61.2 °F 29.86 in Calm     71% 0.00 in
22:53 70.9 °F 61.0 °F 29.86 in Calm     71% 0.00 in
22:58 70.8 °F 60.9 °F 29.86 in Calm     71% 0.00 in
23:03 70.6 °F 61.1 °F 29.86 in Calm     72% 0.00 in
23:08 70.4 °F 61.0 °F 29.86 in Calm     72% 0.00 in
23:13 70.3 °F 61.2 °F 29.86 in Calm     73% 0.00 in
23:18 70.2 °F 61.2 °F 29.86 in Calm     73% 0.00 in
23:23 70.1 °F 61.0 °F 29.86 in Calm     73% 0.00 in
23:28 69.9 °F 60.9 °F 29.86 in Calm     73% 0.00 in
HorshamWeather.Com
Compliments of Weather Underground